createdAt,value
2023-05-12T00:01:27.311Z,5.63
2023-05-12T00:03:55.801Z,5.20
2023-05-12T00:06:26.485Z,5.13
2023-05-12T00:08:54.774Z,5.60
2023-05-12T00:11:24.513Z,5.00
2023-05-12T00:13:53.647Z,5.20
2023-05-12T00:16:25.027Z,5.20
2023-05-12T00:18:53.465Z,5.13
2023-05-12T00:21:21.841Z,5.10
2023-05-12T00:23:50.246Z,5.17
2023-05-12T00:26:18.572Z,5.07
2023-05-12T00:28:48.793Z,5.37
2023-05-12T00:31:17.318Z,5.23
2023-05-12T00:33:45.667Z,5.37
2023-05-12T00:36:13.942Z,5.57
2023-05-12T00:38:48.389Z,5.23
2023-05-12T00:41:16.835Z,5.57
2023-05-12T00:43:45.125Z,5.47
2023-05-12T00:46:18.516Z,5.70
2023-05-12T00:48:46.966Z,5.53
2023-05-12T00:51:16.658Z,5.87
2023-05-12T00:53:49.821Z,6.00
2023-05-12T00:56:20.476Z,6.10
2023-05-12T00:58:48.783Z,5.70
2023-05-12T01:01:18.879Z,6.20
2023-05-12T01:03:47.616Z,5.67
2023-05-12T01:06:22.395Z,4.73
2023-05-12T01:08:51.124Z,5.67
2023-05-12T01:11:24.478Z,5.53
2023-05-12T01:13:52.761Z,5.50
2023-05-12T01:16:27.685Z,5.03
2023-05-12T01:18:58.422Z,4.77
2023-05-12T01:21:26.979Z,5.23
2023-05-12T01:24:00.998Z,5.00
2023-05-12T01:26:32.386Z,5.17
2023-05-12T01:29:02.535Z,5.70
2023-05-12T01:31:31.446Z,5.63
2023-05-12T01:33:59.774Z,5.20
2023-05-12T01:36:28.105Z,5.70
2023-05-12T01:38:57.137Z,4.60
2023-05-12T01:41:25.535Z,4.90
2023-05-12T01:43:58.080Z,5.10
2023-05-12T01:46:26.602Z,5.47
2023-05-12T01:48:54.869Z,5.00
2023-05-12T01:51:23.164Z,4.83
2023-05-12T01:53:51.410Z,5.40
2023-05-12T01:56:20.030Z,5.23
2023-05-12T01:58:51.238Z,5.10
2023-05-12T02:01:20.985Z,5.43
2023-05-12T02:03:49.446Z,5.70
2023-05-12T02:06:17.902Z,5.20
2023-05-12T02:08:46.189Z,5.70
2023-05-12T02:11:14.526Z,5.30
2023-05-12T02:13:44.481Z,5.47
2023-05-12T02:16:13.174Z,5.33
2023-05-12T02:18:43.045Z,4.70
2023-05-12T02:21:11.514Z,5.53
2023-05-12T02:23:39.908Z,5.10
2023-05-12T02:26:08.485Z,4.90
2023-05-12T02:28:36.915Z,5.43
2023-05-12T02:31:05.309Z,5.20
2023-05-12T02:33:33.629Z,5.33
2023-05-12T02:36:03.382Z,5.53
2023-05-12T02:38:31.728Z,5.63
2023-05-12T02:41:01.846Z,5.67
2023-05-12T02:43:30.211Z,5.87
2023-05-12T02:45:58.629Z,5.00
2023-05-12T02:48:27.084Z,5.40
2023-05-12T02:50:55.401Z,5.33
2023-05-12T02:53:25.230Z,6.20
2023-05-12T02:55:53.885Z,6.00
2023-05-12T02:58:22.460Z,6.00
2023-05-12T03:00:59.858Z,6.63
2023-05-12T03:03:35.453Z,6.03
2023-05-12T03:06:04.640Z,6.70
2023-05-12T03:08:37.379Z,6.83
2023-05-12T03:11:05.893Z,7.83
2023-05-12T03:13:34.813Z,7.13
2023-05-12T03:16:06.440Z,7.30
2023-05-12T03:18:34.844Z,7.23
2023-05-12T03:21:06.474Z,7.60
2023-05-12T03:23:36.855Z,8.40
2023-05-12T03:26:05.270Z,7.93
2023-05-12T03:28:33.712Z,8.47
2023-05-12T03:31:02.140Z,8.00
2023-05-12T03:33:30.601Z,7.27
2023-05-12T03:35:58.963Z,7.97
2023-05-12T03:38:27.286Z,8.77
2023-05-12T03:41:06.367Z,8.37
2023-05-12T03:43:34.861Z,8.23
2023-05-12T03:46:08.471Z,8.40
2023-05-12T03:48:37.123Z,7.60
2023-05-12T03:51:05.736Z,8.37
2023-05-12T03:53:34.192Z,8.13
2023-05-12T03:56:07.681Z,8.83
2023-05-12T03:58:36.477Z,9.00
2023-05-12T04:01:05.063Z,8.77
2023-05-12T04:03:33.600Z,8.50
2023-05-12T04:06:03.300Z,9.07
2023-05-12T04:08:33.544Z,8.40
2023-05-12T04:11:03.334Z,8.33
2023-05-12T04:13:33.406Z,8.60
2023-05-12T04:16:02.390Z,9.37
2023-05-12T04:18:30.985Z,8.30
2023-05-12T04:20:59.536Z,8.33
2023-05-12T04:23:31.001Z,7.73
2023-05-12T04:26:02.093Z,7.90
2023-05-12T04:28:30.524Z,9.23
2023-05-12T04:31:04.559Z,9.77
2023-05-12T04:33:32.952Z,8.17
2023-05-12T04:36:01.478Z,8.37
2023-05-12T04:38:32.913Z,7.43
2023-05-12T04:41:01.641Z,7.67
2023-05-12T04:46:06.082Z,7.53
2023-05-12T04:48:34.536Z,10.63
2023-05-12T04:51:02.899Z,14.43
2023-05-12T04:53:34.779Z,18.20
2023-05-12T04:56:06.524Z,11.63
2023-05-12T04:58:34.953Z,11.13
2023-05-12T05:01:05.191Z,9.93
2023-05-12T05:03:33.809Z,8.53
2023-05-12T05:06:02.231Z,7.20
2023-05-12T05:08:30.591Z,6.57
2023-05-12T05:11:01.776Z,7.23
2023-05-12T05:13:30.152Z,7.27
2023-05-12T05:15:58.559Z,6.47
2023-05-12T05:18:29.220Z,6.90
2023-05-12T05:20:59.088Z,7.07
2023-05-12T05:23:27.892Z,7.37
2023-05-12T05:25:56.307Z,7.03
2023-05-12T05:28:27.793Z,7.20
2023-05-12T05:30:56.215Z,7.30
2023-05-12T05:33:24.665Z,7.50
2023-05-12T05:35:56.888Z,8.10
2023-05-12T05:38:25.353Z,7.30
2023-05-12T05:40:54.639Z,6.97
2023-05-12T05:43:23.258Z,7.47
2023-05-12T05:45:55.961Z,8.00
2023-05-12T05:48:24.400Z,7.43
2023-05-12T05:50:55.286Z,7.73
2023-05-12T05:53:23.902Z,7.97
2023-05-12T05:55:52.258Z,7.60
2023-05-12T05:58:20.864Z,8.27
2023-05-12T06:00:49.304Z,7.23
2023-05-12T06:03:17.685Z,7.57
2023-05-12T06:05:48.874Z,7.70
2023-05-12T06:08:18.607Z,6.97
2023-05-12T06:10:46.999Z,7.20
2023-05-12T06:13:15.479Z,8.20
2023-05-12T06:15:44.056Z,7.67
2023-05-12T06:18:12.566Z,7.30
2023-05-12T06:20:41.137Z,6.57
2023-05-12T06:23:09.624Z,7.73
2023-05-12T06:25:39.764Z,6.70
2023-05-12T06:28:08.548Z,6.47
2023-05-12T06:30:36.978Z,6.20
2023-05-12T06:33:05.573Z,6.47
2023-05-12T06:35:34.100Z,5.97
2023-05-12T06:38:02.520Z,6.03
2023-05-12T06:40:30.969Z,6.00
2023-05-12T06:43:00.889Z,6.00
2023-05-12T06:45:29.361Z,6.53
2023-05-12T06:47:58.453Z,6.17
2023-05-12T06:50:27.048Z,5.00
2023-05-12T06:52:55.570Z,6.23
2023-05-12T06:55:24.603Z,5.10
2023-05-12T06:57:55.765Z,5.50
2023-05-12T07:00:27.068Z,5.00
2023-05-12T07:02:55.872Z,4.93
2023-05-12T07:05:24.828Z,5.40
2023-05-12T07:07:53.943Z,4.87
2023-05-12T07:10:22.312Z,4.80
2023-05-12T07:12:50.688Z,5.00
2023-05-12T07:15:19.577Z,4.60
2023-05-12T07:17:49.838Z,4.97
2023-05-12T07:20:18.465Z,5.47
2023-05-12T07:22:46.890Z,4.30
2023-05-12T07:25:16.033Z,4.53
2023-05-12T07:27:44.537Z,4.47
2023-05-12T07:30:13.676Z,4.73
2023-05-12T07:32:42.984Z,4.43
2023-05-12T07:35:13.171Z,5.03
2023-05-12T07:37:42.580Z,4.77
2023-05-12T07:40:12.184Z,4.80
2023-05-12T07:42:40.591Z,4.60
2023-05-12T07:45:10.020Z,4.27
2023-05-12T07:47:40.358Z,4.70
2023-05-12T07:50:09.364Z,4.83
2023-05-12T07:52:48.014Z,4.67
2023-05-12T07:55:16.926Z,4.30
2023-05-12T07:57:45.610Z,4.53
2023-05-12T08:00:15.784Z,4.57
2023-05-12T08:02:44.808Z,4.90
2023-05-12T08:05:13.616Z,4.90
2023-05-12T08:07:43.979Z,4.70
2023-05-12T08:10:14.102Z,4.20
2023-05-12T08:12:43.382Z,4.93
2023-05-12T08:15:12.706Z,3.80
2023-05-12T08:17:41.075Z,3.97
2023-05-12T08:20:10.842Z,4.20
2023-05-12T08:22:39.991Z,4.30
2023-05-12T08:25:12.568Z,9.20
2023-05-12T08:27:41.255Z,4.40
2023-05-12T08:30:11.146Z,5.83
2023-05-12T08:32:39.764Z,4.40
2023-05-12T08:35:08.311Z,4.53
2023-05-12T08:37:36.757Z,5.17
2023-05-12T08:40:12.641Z,5.37
2023-05-12T08:42:45.610Z,5.27
2023-05-12T08:45:13.924Z,5.70
2023-05-12T08:47:43.718Z,5.50
2023-05-12T08:50:13.264Z,5.43
2023-05-12T08:52:41.900Z,5.13
2023-05-12T08:55:12.203Z,4.83
2023-05-12T08:57:45.629Z,4.50
2023-05-12T09:00:16.223Z,4.27
2023-05-12T09:02:52.804Z,4.10
2023-05-12T09:05:23.674Z,3.27
2023-05-12T09:07:55.889Z,4.00
2023-05-12T09:10:35.191Z,3.77
2023-05-12T09:13:17.421Z,4.10
2023-05-12T09:15:48.563Z,3.40
2023-05-12T09:18:16.964Z,3.70
2023-05-12T09:20:45.446Z,4.00
2023-05-12T09:23:19.109Z,3.70
2023-05-12T09:26:00.525Z,3.93
2023-05-12T09:28:37.742Z,3.60
2023-05-12T09:31:17.656Z,3.40
2023-05-12T09:33:46.068Z,3.40
2023-05-12T09:36:21.088Z,3.80
2023-05-12T09:39:00.891Z,3.27
2023-05-12T09:41:30.556Z,3.30
2023-05-12T09:44:01.386Z,3.03
2023-05-12T09:46:32.346Z,2.70
2023-05-12T09:49:02.671Z,2.80
2023-05-12T09:51:32.237Z,2.90
2023-05-12T09:54:00.840Z,2.57
2023-05-12T09:56:32.402Z,2.90
2023-05-12T09:59:02.487Z,2.73
2023-05-12T10:01:30.986Z,2.70
2023-05-12T10:04:00.534Z,2.80
2023-05-12T10:06:33.812Z,2.70
2023-05-12T10:09:15.665Z,2.90
2023-05-12T10:11:46.671Z,2.50
2023-05-12T10:14:15.509Z,3.33
2023-05-12T10:16:46.762Z,3.07
2023-05-12T10:19:15.702Z,3.10
2023-05-12T10:21:46.197Z,3.50
2023-05-12T10:24:17.013Z,2.90
2023-05-12T10:26:47.519Z,2.67
2023-05-12T10:29:16.770Z,2.73
2023-05-12T10:31:46.403Z,2.43
2023-05-12T10:34:19.778Z,2.40
2023-05-12T10:36:50.329Z,2.20
2023-05-12T10:39:19.959Z,2.20
2023-05-12T10:41:51.095Z,2.50
2023-05-12T10:44:29.467Z,2.37
2023-05-12T10:47:00.959Z,2.50
2023-05-12T10:49:37.602Z,2.70
2023-05-12T10:52:07.535Z,3.87
2023-05-12T10:54:44.222Z,2.77
2023-05-12T10:57:43.555Z,2.50
2023-05-12T11:00:15.581Z,1.93
2023-05-12T11:02:52.709Z,2.07
2023-05-12T11:05:22.550Z,2.40
2023-05-12T11:07:52.458Z,2.43
2023-05-12T11:10:22.047Z,2.40
2023-05-12T11:12:52.380Z,2.47
2023-05-12T11:15:21.131Z,2.43
2023-05-12T11:17:49.900Z,2.00
2023-05-12T11:20:24.366Z,2.07
2023-05-12T11:22:52.880Z,2.40
2023-05-12T11:25:21.486Z,2.03
2023-05-12T11:27:51.776Z,1.90
2023-05-12T11:30:20.667Z,2.00
2023-05-12T11:32:49.133Z,2.07
2023-05-12T11:35:19.792Z,2.10
2023-05-12T11:37:48.480Z,1.90
2023-05-12T11:40:19.082Z,2.10
2023-05-12T11:42:54.676Z,2.10
2023-05-12T11:45:25.886Z,1.90
2023-05-12T11:47:55.518Z,1.97
2023-05-12T11:50:25.932Z,1.97
2023-05-12T11:52:55.597Z,1.77
2023-05-12T11:55:25.486Z,2.00
2023-05-12T11:58:00.764Z,2.00
2023-05-12T12:00:32.731Z,1.53
2023-05-12T12:03:12.999Z,1.87
2023-05-12T12:05:44.124Z,1.70
2023-05-12T12:08:17.326Z,1.80
2023-05-12T12:10:46.703Z,1.80
2023-05-12T12:13:21.912Z,1.73
2023-05-12T12:15:50.579Z,1.97
2023-05-12T12:18:19.998Z,2.13
2023-05-12T12:20:48.967Z,2.57
2023-05-12T12:23:17.267Z,1.90
2023-05-12T12:25:45.556Z,3.00
2023-05-12T12:28:15.274Z,1.97
2023-05-12T12:30:43.597Z,1.70
2023-05-12T12:33:11.978Z,1.63
2023-05-12T12:35:43.396Z,1.73
2023-05-12T12:38:11.747Z,2.00
2023-05-12T12:40:40.050Z,1.80
2023-05-12T12:43:08.740Z,1.80
2023-05-12T12:45:49.280Z,1.40
2023-05-12T12:48:18.259Z,1.30
2023-05-12T12:50:46.553Z,1.40
2023-05-12T12:53:14.852Z,0.97
2023-05-12T12:55:43.160Z,1.40
2023-05-12T12:58:11.606Z,1.10
2023-05-12T13:00:41.419Z,1.30
2023-05-12T13:03:09.851Z,1.97
2023-05-12T13:05:38.666Z,2.10
2023-05-12T13:08:07.224Z,2.00
2023-05-12T13:10:36.129Z,1.70
2023-05-12T13:13:04.383Z,1.57
2023-05-12T13:15:33.139Z,1.40
2023-05-12T13:18:02.830Z,1.40
2023-05-12T13:20:31.333Z,1.43
2023-05-12T13:22:59.754Z,1.77
2023-05-12T13:25:28.088Z,2.07
2023-05-12T13:27:56.363Z,10.07
2023-05-12T13:30:25.210Z,7.80
2023-05-12T13:32:53.757Z,6.77
2023-05-12T13:35:23.701Z,5.07
2023-05-12T13:37:52.140Z,2.80
2023-05-12T13:40:20.422Z,3.77
2023-05-12T13:42:48.735Z,4.10
2023-05-12T13:45:17.799Z,2.20
2023-05-12T13:47:47.833Z,2.50
2023-05-12T13:50:16.206Z,2.30
2023-05-12T13:52:47.512Z,4.73
2023-05-12T13:55:20.831Z,4.03
2023-05-12T13:57:49.612Z,5.70
2023-05-12T14:00:18.948Z,2.20
2023-05-12T14:02:47.343Z,2.10
2023-05-12T14:05:15.898Z,2.20
2023-05-12T14:07:45.931Z,2.47
2023-05-12T14:10:14.228Z,2.20
2023-05-12T14:12:42.904Z,1.70
2023-05-12T14:17:48.123Z,2.83
2023-05-12T14:20:16.656Z,2.10
2023-05-12T14:22:46.378Z,1.93
2023-05-12T14:25:16.164Z,1.90
2023-05-12T14:27:45.321Z,2.60
2023-05-12T14:30:15.079Z,2.10
2023-05-12T14:32:43.596Z,2.83
2023-05-12T14:35:11.969Z,5.57
2023-05-12T14:37:40.286Z,5.80
2023-05-12T14:40:12.215Z,3.53
2023-05-12T14:42:40.527Z,2.23
2023-05-12T14:45:10.261Z,2.10
2023-05-12T14:47:38.642Z,2.30
2023-05-12T14:50:08.357Z,2.27
2023-05-12T14:52:38.515Z,2.40
2023-05-12T14:55:12.269Z,2.50
2023-05-12T14:57:41.196Z,5.70
2023-05-12T15:00:11.988Z,3.50
2023-05-12T15:02:42.638Z,2.60
2023-05-12T15:05:13.431Z,2.10
2023-05-12T15:07:42.112Z,2.03
2023-05-12T15:10:12.720Z,1.90
2023-05-12T15:12:41.008Z,2.40
2023-05-12T15:15:11.872Z,1.70
2023-05-12T15:17:40.625Z,2.30
2023-05-12T15:20:10.904Z,2.80
2023-05-12T15:22:39.508Z,2.13
2023-05-12T15:25:09.801Z,1.53
2023-05-12T15:27:39.518Z,3.00
2023-05-12T15:30:09.983Z,3.57
2023-05-12T15:32:41.138Z,2.10
2023-05-12T15:35:11.202Z,2.37
2023-05-12T15:37:39.624Z,2.20
2023-05-12T15:40:10.256Z,2.30
2023-05-12T15:42:39.936Z,3.07
2023-05-12T15:45:10.151Z,2.03
2023-05-12T15:47:38.644Z,2.03
2023-05-12T15:50:10.367Z,2.40
2023-05-12T15:52:38.732Z,2.83
2023-05-12T15:55:07.817Z,2.50
2023-05-12T15:57:36.148Z,2.27
2023-05-12T16:00:10.211Z,2.03
2023-05-12T16:02:38.900Z,2.10
2023-05-12T16:05:09.322Z,2.47
2023-05-12T16:07:38.793Z,2.97
2023-05-12T16:10:08.187Z,3.40
2023-05-12T16:12:36.533Z,3.70
2023-05-12T16:15:07.672Z,3.40
2023-05-12T16:17:36.044Z,3.43
2023-05-12T16:20:04.678Z,4.10
2023-05-12T16:22:32.992Z,4.17
2023-05-12T16:25:01.413Z,4.60
2023-05-12T16:27:32.042Z,2.73
2023-05-12T16:30:00.590Z,4.67
2023-05-12T16:32:30.587Z,3.23
2023-05-12T16:34:58.989Z,2.90
2023-05-12T16:37:27.872Z,2.83
2023-05-12T16:39:56.316Z,2.03
2023-05-12T16:42:24.946Z,2.00
2023-05-12T16:44:54.808Z,2.10
2023-05-12T16:47:25.923Z,1.90
2023-05-12T16:49:58.129Z,2.17
2023-05-12T16:52:26.767Z,1.87
2023-05-12T16:54:56.869Z,1.57
2023-05-12T16:57:25.416Z,2.50
2023-05-12T16:59:53.808Z,3.80
2023-05-12T17:02:22.398Z,5.27
2023-05-12T17:04:50.970Z,4.00
2023-05-12T17:07:20.737Z,2.23
2023-05-12T17:09:49.097Z,2.67
2023-05-12T17:12:17.609Z,2.57
2023-05-12T17:14:50.298Z,2.60
2023-05-12T17:17:28.768Z,2.03
2023-05-12T17:19:57.273Z,2.33
2023-05-12T17:22:28.026Z,2.67
2023-05-12T17:24:56.952Z,2.30
2023-05-12T17:27:25.798Z,2.33
2023-05-12T17:29:54.151Z,2.60
2023-05-12T17:32:23.031Z,1.80
2023-05-12T17:34:52.552Z,2.40
2023-05-12T17:37:20.942Z,1.90
2023-05-12T17:39:50.788Z,1.70
2023-05-12T17:42:19.181Z,1.80
2023-05-12T17:44:47.554Z,1.93
2023-05-12T17:47:16.624Z,1.50
2023-05-12T17:49:46.181Z,1.70
2023-05-12T17:52:14.541Z,1.70
2023-05-12T17:54:42.950Z,1.67
2023-05-12T17:57:12.723Z,1.50
2023-05-12T17:59:41.095Z,1.97
2023-05-12T18:02:09.448Z,2.00
2023-05-12T18:04:38.010Z,1.97
2023-05-12T18:07:06.774Z,2.10
2023-05-12T18:09:35.217Z,1.80
2023-05-12T18:12:03.834Z,1.70
2023-05-12T18:14:33.552Z,1.80
2023-05-12T18:17:02.184Z,1.60
2023-05-12T18:19:30.630Z,1.67
2023-05-12T18:21:59.019Z,1.70
2023-05-12T18:24:31.596Z,1.80
2023-05-12T18:27:00.035Z,1.93
2023-05-12T18:29:28.442Z,1.63
2023-05-12T18:31:58.358Z,1.00
2023-05-12T18:34:26.792Z,1.40
2023-05-12T18:36:56.048Z,1.60
2023-05-12T18:39:25.061Z,1.60
2023-05-12T18:41:54.849Z,1.47
2023-05-12T18:44:23.233Z,1.83
2023-05-12T18:46:51.685Z,1.90
2023-05-12T18:49:21.423Z,1.80
2023-05-12T18:51:49.745Z,1.50
2023-05-12T18:54:18.102Z,2.00
2023-05-12T18:56:47.498Z,2.10
2023-05-12T18:59:15.845Z,2.50
2023-05-12T19:01:44.323Z,2.53
2023-05-12T19:04:12.775Z,2.30
2023-05-12T19:06:42.695Z,1.90
2023-05-12T19:09:11.109Z,2.37
2023-05-12T19:11:39.570Z,2.30
2023-05-12T19:14:08.223Z,1.70
2023-05-12T19:16:38.302Z,1.83
2023-05-12T19:19:07.209Z,1.90
2023-05-12T19:21:35.786Z,1.80
2023-05-12T19:24:06.251Z,1.60
2023-05-12T19:26:34.656Z,1.80
2023-05-12T19:29:03.048Z,1.80
2023-05-12T19:31:31.942Z,1.60
2023-05-12T19:34:00.339Z,2.00
2023-05-12T19:36:29.335Z,1.83
2023-05-12T19:38:59.615Z,2.13
2023-05-12T19:41:30.924Z,1.60
2023-05-12T19:43:59.266Z,1.93
2023-05-12T19:46:27.647Z,1.90
2023-05-12T19:48:56.069Z,1.70
2023-05-12T19:51:27.257Z,1.53
2023-05-12T19:53:55.582Z,1.50
2023-05-12T19:56:24.214Z,1.50
2023-05-12T19:58:53.940Z,1.40
2023-05-12T20:01:22.480Z,1.90
2023-05-12T20:03:50.970Z,1.70
2023-05-12T20:06:20.251Z,1.70
2023-05-12T20:08:51.535Z,2.20
2023-05-12T20:11:19.885Z,2.30
2023-05-12T20:13:48.206Z,1.40
2023-05-12T20:16:18.372Z,1.50
2023-05-12T20:18:46.822Z,1.50
2023-05-12T20:21:15.519Z,1.70
2023-05-12T20:23:44.378Z,1.60
2023-05-12T20:26:12.772Z,1.60
2023-05-12T20:28:41.163Z,1.50
2023-05-12T20:31:10.131Z,1.50
2023-05-12T20:33:39.951Z,1.57
2023-05-12T20:36:08.918Z,1.03
2023-05-12T20:38:37.396Z,1.67
2023-05-12T20:41:06.357Z,1.50
2023-05-12T20:43:34.808Z,1.67
2023-05-12T20:46:04.995Z,1.40
2023-05-12T20:48:33.637Z,1.30
2023-05-12T20:51:12.767Z,1.50
2023-05-12T20:53:42.111Z,1.37
2023-05-12T20:56:10.716Z,1.27
2023-05-12T20:58:39.128Z,1.33
2023-05-12T21:01:07.534Z,1.10
2023-05-12T21:03:36.222Z,1.30
2023-05-12T21:06:06.893Z,1.30
2023-05-12T21:08:36.682Z,1.40
2023-05-12T21:11:05.151Z,1.33
2023-05-12T21:13:33.956Z,1.30
2023-05-12T21:16:02.315Z,1.40
2023-05-12T21:18:30.714Z,1.80
2023-05-12T21:20:59.006Z,1.87
2023-05-12T21:23:27.392Z,1.80
2023-05-12T21:25:57.229Z,1.93
2023-05-12T21:28:25.583Z,1.60
2023-05-12T21:30:54.004Z,2.13
2023-05-12T21:33:22.403Z,2.03
2023-05-12T21:35:50.826Z,1.50
2023-05-12T21:38:20.775Z,1.67
2023-05-12T21:40:51.919Z,2.00
2023-05-12T21:43:21.650Z,1.77
2023-05-12T21:45:50.010Z,1.80
2023-05-12T21:48:18.572Z,1.73
2023-05-12T21:50:46.925Z,2.00
2023-05-12T21:53:15.309Z,1.87
2023-05-12T21:55:43.888Z,1.87
2023-05-12T21:58:12.289Z,2.07
2023-05-12T22:00:41.992Z,2.20
2023-05-12T22:03:10.636Z,1.70
2023-05-12T22:05:39.396Z,1.50
2023-05-12T22:08:07.754Z,2.00
2023-05-12T22:10:36.114Z,2.20
2023-05-12T22:13:04.557Z,1.63
2023-05-12T22:15:33.272Z,1.73
2023-05-12T22:18:03.106Z,1.70
2023-05-12T22:20:31.542Z,1.53
2023-05-12T22:22:59.903Z,2.00
2023-05-12T22:25:28.453Z,1.67
2023-05-12T22:27:56.802Z,1.70
2023-05-12T22:30:25.321Z,1.70
2023-05-12T22:32:54.076Z,1.60
2023-05-12T22:35:23.875Z,1.77
2023-05-12T22:37:52.336Z,1.47
2023-05-12T22:40:23.121Z,1.63
2023-05-12T22:42:51.636Z,1.83
2023-05-12T22:45:20.232Z,1.70
2023-05-12T22:47:48.621Z,1.80
2023-05-12T22:50:17.208Z,1.83
2023-05-12T22:52:46.964Z,1.67
2023-05-12T22:55:15.299Z,1.80
2023-05-12T22:57:46.016Z,1.53
2023-05-12T23:00:15.799Z,1.60
2023-05-12T23:02:44.274Z,1.83
2023-05-12T23:05:12.690Z,1.63
2023-05-12T23:07:41.005Z,1.97
2023-05-12T23:10:11.591Z,1.93
2023-05-12T23:12:40.310Z,1.50
2023-05-12T23:15:09.915Z,1.57
2023-05-12T23:17:38.315Z,1.73
2023-05-12T23:20:08.884Z,2.07
2023-05-12T23:22:37.246Z,2.00
2023-05-12T23:25:06.129Z,2.20
2023-05-12T23:27:36.842Z,1.77
2023-05-12T23:30:06.023Z,1.70
2023-05-12T23:32:34.656Z,2.10
2023-05-12T23:35:03.078Z,1.80
2023-05-12T23:37:31.486Z,2.07
2023-05-12T23:39:59.874Z,1.67
2023-05-12T23:42:28.155Z,2.10
2023-05-12T23:44:57.951Z,1.97
2023-05-12T23:47:37.937Z,2.00
2023-05-12T23:50:08.026Z,1.90
2023-05-12T23:52:36.435Z,2.77
2023-05-12T23:55:05.092Z,2.93
2023-05-12T23:57:33.364Z,2.23
